Time;durP1;ratioP1;P1;durP2;ratioP2;P2;SDS_P1;SDS_P2;PMS_P1;PMS_P2;Temp;Humidity;BMP_temperature;BMP_pressure;BME280_temperature;BME280_humidity;BME280_pressure;Samples;Min_cycle;Max_cycle;Signal;HPM_P1;HPM_P2
2023/04/11 00:02:21;;;;;;;19.80;14.82;;;11.90;99.90;;;;;;5019570;28;20229;-73
2023/04/11 00:05:10;;;;;;;21.08;15.00;;;12.00;99.90;;;;;;5025820;28;20589;-74
2023/04/11 00:07:59;;;;;;;18.05;14.05;;;12.20;99.90;;;;;;5014325;28;20226;-71
2023/04/11 00:10:48;;;;;;;22.58;15.95;;;12.20;99.90;;;;;;5017344;28;20694;-72
2023/04/11 00:13:37;;;;;;;24.00;15.27;;;12.00;99.90;;;;;;5014172;28;20678;-74
2023/04/11 00:16:32;;;;;;;20.15;15.27;;;11.90;99.90;;;;;;5026716;28;20537;-71
2023/04/11 00:19:22;;;;;;;22.48;15.98;;;11.90;99.90;;;;;;5027951;28;20311;-72
2023/04/11 00:22:10;;;;;;;23.17;15.38;;;11.70;99.90;;;;;;5042965;28;20224;-72
2023/04/11 00:24:59;;;;;;;21.75;15.45;;;11.70;99.90;;;;;;5027561;28;20669;-70
2023/04/11 00:27:48;;;;;;;21.70;15.35;;;11.70;99.90;;;;;;5023442;28;20229;-72
2023/04/11 00:30:38;;;;;;;27.08;15.90;;;11.60;99.90;;;;;;5033550;28;20229;-73
2023/04/11 00:33:28;;;;;;;23.83;17.02;;;11.60;99.90;;;;;;5048975;28;20217;-71
2023/04/11 00:36:17;;;;;;;23.35;16.95;;;11.50;99.90;;;;;;5016102;28;20727;-73
2023/04/11 00:39:06;;;;;;;25.48;18.13;;;11.50;99.90;;;;;;5014271;28;20214;-70
2023/04/11 00:42:03;;;;;;;27.92;19.50;;;11.60;99.90;;;;;;5049086;28;20304;-71
2023/04/11 00:44:52;;;;;;;26.75;19.95;;;11.50;99.90;;;;;;5021011;28;20505;-70
2023/04/11 00:47:41;;;;;;;30.00;21.20;;;11.40;99.90;;;;;;5025738;28;20721;-73
2023/04/11 00:50:33;;;;;;;32.85;21.90;;;11.30;99.90;;;;;;5031788;28;20225;-72
2023/04/11 00:53:22;;;;;;;31.73;21.88;;;11.10;99.90;;;;;;5032495;28;20237;-73
2023/04/11 00:56:12;;;;;;;36.80;24.02;;;11.20;99.90;;;;;;5018877;28;20241;-72
2023/04/11 00:59:01;;;;;;;37.70;25.38;;;11.20;99.90;;;;;;5020125;28;20256;-73
2023/04/11 01:01:49;;;;;;;34.63;25.05;;;11.20;99.90;;;;;;5019745;28;20241;-72
2023/04/11 01:04:39;;;;;;;40.25;25.17;;;11.20;99.90;;;;;;5037954;28;20326;-73
2023/04/11 01:07:31;;;;;;;35.05;24.23;;;11.10;99.90;;;;;;5037695;28;20242;-72
2023/04/11 01:10:20;;;;;;;37.20;24.83;;;11.10;99.90;;;;;;5035751;28;20779;-72
2023/04/11 01:13:09;;;;;;;37.40;26.25;;;11.00;99.90;;;;;;5024809;28;20228;-73
2023/04/11 01:15:59;;;;;;;37.72;26.23;;;10.90;99.90;;;;;;5039529;28;20221;-72
2023/04/11 01:18:48;;;;;;;38.00;24.85;;;10.80;99.90;;;;;;5032699;28;20229;-70
2023/04/11 01:21:38;;;;;;;35.22;24.50;;;10.80;99.90;;;;;;5016404;28;20237;-73
2023/04/11 01:24:29;;;;;;;34.78;23.23;;;10.90;99.90;;;;;;5014156;28;20251;-72
2023/04/11 01:27:19;;;;;;;32.90;23.10;;;10.80;99.90;;;;;;5019378;28;20252;-73
2023/04/11 01:30:11;;;;;;;35.13;23.40;;;10.80;99.90;;;;;;5002589;28;20549;-72
2023/04/11 01:33:00;;;;;;;29.42;21.25;;;10.70;99.90;;;;;;5009931;28;20347;-72
2023/04/11 01:35:49;;;;;;;31.05;22.15;;;10.60;99.90;;;;;;5020349;28;20251;-74
2023/04/11 01:38:38;;;;;;;29.45;22.10;;;10.60;99.90;;;;;;5039073;28;20308;-73
2023/04/11 01:41:31;;;;;;;34.65;22.52;;;10.60;99.90;;;;;;5024193;28;20221;-72
2023/04/11 01:44:20;;;;;;;28.00;20.55;;;10.70;99.90;;;;;;5038224;28;20240;-72
2023/04/11 01:47:09;;;;;;;33.22;20.45;;;10.60;99.90;;;;;;5037093;28;20617;-74
2023/04/11 01:49:58;;;;;;;29.02;20.67;;;10.60;99.90;;;;;;5029137;28;20290;-72
2023/04/11 01:52:47;;;;;;;31.75;20.98;;;10.60;99.90;;;;;;5025722;28;20665;-72
2023/04/11 01:55:36;;;;;;;32.05;21.13;;;10.60;99.90;;;;;;5021405;28;20214;-72
2023/04/11 01:58:26;;;;;;;34.70;20.88;;;10.60;99.90;;;;;;5023623;28;20223;-74
2023/04/11 02:01:18;;;;;;;29.65;21.73;;;10.50;99.90;;;;;;5020379;28;20719;-74
2023/04/11 02:04:07;;;;;;;32.10;20.50;;;10.40;99.90;;;;;;5038963;28;20251;-73
2023/04/11 02:06:56;;;;;;;27.67;21.13;;;10.50;99.90;;;;;;5017535;28;20376;-72
2023/04/11 02:09:44;;;;;;;32.72;20.80;;;10.40;99.90;;;;;;5011390;28;20225;-70
2023/04/11 02:12:33;;;;;;;28.83;19.70;;;10.50;99.90;;;;;;5040082;28;20225;-72
2023/04/11 02:15:24;;;;;;;27.65;19.95;;;10.50;99.90;;;;;;5041175;28;20331;-72
2023/04/11 02:18:12;;;;;;;27.48;19.50;;;10.50;99.90;;;;;;5019999;28;20209;-71
2023/04/11 02:21:01;;;;;;;27.30;19.52;;;10.60;99.90;;;;;;5039258;28;20266;-72
2023/04/11 02:23:53;;;;;;;26.35;19.00;;;10.60;99.90;;;;;;5011905;28;21074;-72
2023/04/11 02:26:42;;;;;;;26.60;18.45;;;10.60;99.90;;;;;;5040671;28;20237;-72
2023/04/11 02:29:31;;;;;;;26.52;18.17;;;10.50;99.90;;;;;;5029811;28;20225;-71
2023/04/11 02:32:21;;;;;;;27.55;18.50;;;10.30;99.90;;;;;;5035739;28;20247;-72
2023/04/11 02:35:10;;;;;;;26.90;18.98;;;10.50;99.90;;;;;;5023504;28;20229;-71
2023/04/11 02:38:02;;;;;;;24.83;18.17;;;10.50;99.90;;;;;;5035066;28;20795;-68
2023/04/11 02:40:50;;;;;;;26.92;18.40;;;10.30;99.90;;;;;;5037858;28;20233;-71
2023/04/11 02:43:39;;;;;;;24.73;18.60;;;10.20;99.90;;;;;;5040221;28;20225;-70
2023/04/11 02:46:28;;;;;;;25.52;18.92;;;10.30;99.90;;;;;;5023721;28;20239;-70
2023/04/11 02:49:18;;;;;;;29.25;18.40;;;10.10;99.90;;;;;;5035433;28;20220;-71
2023/04/11 02:52:08;;;;;;;27.45;18.40;;;9.90;99.90;;;;;;5020138;28;20232;-71
2023/04/11 02:54:57;;;;;;;26.08;18.05;;;9.90;99.90;;;;;;5025859;28;20926;-71
2023/04/11 02:57:48;;;;;;;26.88;18.70;;;10.10;99.90;;;;;;5028125;28;20872;-72
2023/04/11 03:00:40;;;;;;;27.80;19.45;;;10.00;99.90;;;;;;5037329;28;20624;-72
2023/04/11 03:03:29;;;;;;;27.77;18.45;;;10.30;99.90;;;;;;5032088;28;20669;-71
2023/04/11 03:06:20;;;;;;;27.10;18.55;;;10.10;99.90;;;;;;5019582;28;21581;-71
2023/04/11 03:09:14;;;;;;;27.23;18.75;;;10.10;99.90;;;;;;5000795;28;20260;-71
2023/04/11 03:12:03;;;;;;;29.33;18.45;;;10.20;99.90;;;;;;5044294;28;20858;-72
2023/04/11 03:14:53;;;;;;;26.75;18.52;;;10.00;99.90;;;;;;5034521;28;20227;-72
2023/04/11 03:17:42;;;;;;;26.10;17.08;;;9.90;99.90;;;;;;5025072;28;20232;-70
2023/04/11 03:20:34;;;;;;;25.67;18.52;;;9.80;99.90;;;;;;5025061;28;20658;-72
2023/04/11 03:23:24;;;;;;;25.90;17.08;;;9.70;99.90;;;;;;5026846;28;20251;-71
2023/04/11 03:26:14;;;;;;;23.20;16.73;;;9.70;99.90;;;;;;5036410;28;20603;-71
2023/04/11 03:29:05;;;;;;;24.08;17.15;;;9.70;99.90;;;;;;5031166;28;20698;-71
2023/04/11 03:32:03;;;;;;;25.00;16.70;;;9.70;99.90;;;;;;5026545;28;20251;-73
2023/04/11 03:34:54;;;;;;;24.42;17.42;;;9.70;99.90;;;;;;5013674;28;20216;-71
2023/04/11 03:37:43;;;;;;;24.50;16.73;;;9.80;99.90;;;;;;5020892;28;20233;-71
2023/04/11 03:40:34;;;;;;;22.20;16.90;;;9.70;99.90;;;;;;5045686;28;20625;-75
2023/04/11 03:43:30;;;;;;;22.52;16.65;;;9.60;99.90;;;;;;5032760;28;20226;-70
2023/04/11 03:46:20;;;;;;;22.38;16.10;;;9.60;99.90;;;;;;5037820;28;20247;-71
2023/04/11 03:49:09;;;;;;;22.08;15.88;;;9.70;99.90;;;;;;5041836;28;20237;-71
2023/04/11 03:51:58;;;;;;;21.98;15.48;;;9.60;99.90;;;;;;5021780;28;20238;-70
2023/04/11 03:54:48;;;;;;;23.98;16.75;;;9.70;99.90;;;;;;5013348;28;20311;-71
2023/04/11 03:57:40;;;;;;;22.63;16.33;;;9.70;99.90;;;;;;5037175;28;21165;-71
2023/04/11 04:00:29;;;;;;;22.52;16.40;;;9.50;99.90;;;;;;5024438;28;20719;-70
2023/04/11 04:03:24;;;;;;;27.05;16.20;;;9.50;99.90;;;;;;5025641;28;20226;-73
2023/04/11 04:06:15;;;;;;;24.25;16.05;;;9.40;99.90;;;;;;5016056;28;20233;-71
2023/04/11 04:09:04;;;;;;;21.17;17.00;;;9.50;99.90;;;;;;5007447;28;20233;-72
2023/04/11 04:12:05;;;;;;;22.80;15.98;;;9.50;99.90;;;;;;5026296;28;20212;-71
2023/04/11 04:15:13;;;;;;;24.20;17.02;;;9.50;99.90;;;;;;5017061;28;20746;-71
2023/04/11 04:18:06;;;;;;;24.65;16.73;;;9.40;99.90;;;;;;5020471;28;20285;-71
2023/04/11 04:21:06;;;;;;;25.35;17.48;;;9.40;99.90;;;;;;5033132;28;20597;-71
2023/04/11 04:23:55;;;;;;;25.42;17.88;;;9.50;99.90;;;;;;5017832;28;20252;-72
2023/04/11 04:26:52;;;;;;;28.42;18.15;;;9.50;99.90;;;;;;5013335;28;20233;-70
2023/04/11 04:29:57;;;;;;;21.67;17.17;;;9.50;99.90;;;;;;5006238;28;20225;-70
2023/04/11 04:33:11;;;;;;;24.02;16.70;;;9.40;99.90;;;;;;5024601;28;20434;-72
2023/04/11 04:36:08;;;;;;;24.95;16.80;;;9.50;99.90;;;;;;5035508;28;20213;-72
2023/04/11 04:39:00;;;;;;;21.70;17.17;;;9.50;99.90;;;;;;5049038;28;20274;-71
2023/04/11 04:41:58;;;;;;;23.67;17.63;;;9.70;99.90;;;;;;5027967;28;20221;-72
2023/04/11 04:44:54;;;;;;;25.17;17.15;;;9.70;99.90;;;;;;5017965;28;20220;-71
2023/04/11 04:47:43;;;;;;;24.13;18.20;;;9.90;99.90;;;;;;5036084;28;20315;-71
2023/04/11 04:50:34;;;;;;;25.73;17.70;;;9.90;99.90;;;;;;5038934;28;20312;-71
2023/04/11 04:53:23;;;;;;;23.40;17.35;;;9.80;99.90;;;;;;5018134;28;20242;-71
2023/04/11 04:56:16;;;;;;;22.48;16.88;;;9.80;99.90;;;;;;5027196;28;20223;-69
2023/04/11 04:59:13;;;;;;;24.15;17.85;;;9.80;99.90;;;;;;5032945;28;20228;-71
2023/04/11 05:02:03;;;;;;;21.77;17.77;;;9.90;99.90;;;;;;5013829;28;20318;-72
2023/04/11 05:04:52;;;;;;;22.60;16.58;;;10.00;99.90;;;;;;5036339;28;20229;-73
2023/04/11 05:08:08;;;;;;;20.42;16.88;;;10.00;99.90;;;;;;5023157;28;22306;-70
2023/04/11 05:10:58;;;;;;;22.27;16.55;;;10.10;99.90;;;;;;5000325;28;20235;-71
2023/04/11 05:13:47;;;;;;;24.95;17.10;;;10.20;99.90;;;;;;5021578;28;20229;-73
2023/04/11 05:16:38;;;;;;;23.67;16.73;;;10.10;99.90;;;;;;5021917;28;20296;-71
2023/04/11 05:19:28;;;;;;;22.02;16.90;;;10.10;99.90;;;;;;5037308;28;20233;-69
2023/04/11 05:22:17;;;;;;;23.80;16.88;;;10.20;99.90;;;;;;5030577;28;20225;-71
2023/04/11 05:25:11;;;;;;;20.85;16.73;;;10.20;99.90;;;;;;5009009;28;20323;-70
2023/04/11 05:28:02;;;;;;;21.13;17.25;;;10.30;99.90;;;;;;5023063;28;20330;-72
2023/04/11 05:30:52;;;;;;;23.10;16.90;;;10.50;99.90;;;;;;4999321;28;20221;-73
2023/04/11 05:33:41;;;;;;;24.10;17.20;;;10.50;99.90;;;;;;5022439;28;20774;-73
2023/04/11 05:36:32;;;;;;;20.48;16.40;;;10.50;99.90;;;;;;5026573;28;20294;-73
2023/04/11 05:39:21;;;;;;;20.95;16.05;;;10.80;99.90;;;;;;5019707;28;20671;-72
2023/04/11 05:42:12;;;;;;;18.35;15.68;;;11.60;99.90;;;;;;5039012;28;20244;-69
2023/04/11 05:45:00;;;;;;;19.75;15.68;;;11.80;99.90;;;;;;5011316;28;20228;-71
2023/04/11 05:47:50;;;;;;;20.60;15.35;;;11.50;99.90;;;;;;5040928;28;20240;-70
2023/04/11 05:50:39;;;;;;;22.02;16.85;;;11.30;99.90;;;;;;5029255;28;20251;-73
2023/04/11 05:53:28;;;;;;;22.65;17.20;;;11.10;99.90;;;;;;5028951;28;20255;-73
2023/04/11 05:56:17;;;;;;;21.13;16.55;;;11.20;99.90;;;;;;5031748;28;20399;-72
2023/04/11 05:59:08;;;;;;;24.00;17.00;;;11.30;99.90;;;;;;5033057;28;20247;-70
2023/04/11 06:01:57;;;;;;;20.05;17.52;;;11.20;99.90;;;;;;5034371;28;20224;-71
2023/04/11 06:04:45;;;;;;;20.55;16.83;;;11.50;99.90;;;;;;5034384;28;20233;-73
2023/04/11 06:07:34;;;;;;;22.40;16.75;;;12.10;99.90;;;;;;5036060;28;20292;-72
2023/04/11 06:10:23;;;;;;;23.25;16.45;;;12.70;99.90;;;;;;5033426;28;20755;-74
2023/04/11 06:13:12;;;;;;;22.38;15.88;;;12.60;99.90;;;;;;5032110;28;20351;-73
2023/04/11 06:16:02;;;;;;;21.33;15.82;;;12.30;99.90;;;;;;5037020;28;20699;-72
2023/04/11 06:18:51;;;;;;;19.92;15.82;;;12.30;99.90;;;;;;5042713;28;20213;-72
2023/04/11 06:21:40;;;;;;;23.38;15.95;;;12.10;99.90;;;;;;5035801;28;20695;-77
2023/04/11 06:24:36;;;;;;;23.45;16.42;;;12.00;99.90;;;;;;5024206;28;20657;-76
2023/04/11 06:27:25;;;;;;;22.23;14.80;;;12.20;99.90;;;;;;5021070;28;20740;-74
2023/04/11 06:30:15;;;;;;;22.23;15.18;;;12.30;99.90;;;;;;5032058;28;20247;-77
2023/04/11 06:33:05;;;;;;;19.10;14.95;;;12.50;99.90;;;;;;5042840;28;20315;-72
2023/04/11 06:35:55;;;;;;;17.33;14.30;;;12.50;99.90;;;;;;5037284;28;20603;-72
2023/04/11 06:38:44;;;;;;;19.73;14.73;;;12.50;99.90;;;;;;5036151;28;20237;-73
2023/04/11 06:41:33;;;;;;;18.88;13.48;;;12.70;99.90;;;;;;5037964;28;20225;-72
2023/04/11 06:44:22;;;;;;;17.65;13.63;;;12.70;99.90;;;;;;5040829;28;20213;-72
2023/04/11 06:47:11;;;;;;;17.30;13.75;;;12.80;99.90;;;;;;5033050;28;20613;-71
2023/04/11 06:50:01;;;;;;;19.15;14.00;;;12.90;99.90;;;;;;5041881;28;20239;-72
2023/04/11 06:52:50;;;;;;;19.75;13.93;;;13.10;99.90;;;;;;5043358;28;20220;-72
2023/04/11 06:55:39;;;;;;;17.33;13.20;;;13.40;99.90;;;;;;5036858;28;20218;-72
2023/04/11 06:58:28;;;;;;;18.75;13.68;;;13.80;99.90;;;;;;5046528;28;20228;-70
2023/04/11 07:01:19;;;;;;;17.45;13.73;;;14.10;99.90;;;;;;5036131;28;20241;-72
2023/04/11 07:04:09;;;;;;;21.13;13.02;;;14.30;99.90;;;;;;5042003;28;20236;-73
2023/04/11 07:06:59;;;;;;;15.45;11.73;;;15.00;99.90;;;;;;5034006;28;20277;-72
2023/04/11 07:09:48;;;;;;;15.60;12.05;;;15.70;99.90;;;;;;5047632;28;20220;-69
2023/04/11 07:12:37;;;;;;;14.15;12.10;;;15.90;99.90;;;;;;5028420;28;20224;-69
2023/04/11 07:15:26;;;;;;;16.02;12.70;;;16.40;99.90;;;;;;5019674;28;20217;-71
2023/04/11 07:18:15;;;;;;;16.60;12.35;;;16.70;99.90;;;;;;5040826;28;20367;-72
2023/04/11 07:21:04;;;;;;;13.00;11.52;;;16.80;99.90;;;;;;5048399;28;20243;-70
2023/04/11 07:23:55;;;;;;;17.33;13.02;;;16.80;99.90;;;;;;5016967;28;22151;-75
2023/04/11 07:26:45;;;;;;;14.93;11.70;;;16.70;99.90;;;;;;5040075;28;20826;-73
2023/04/11 07:29:34;;;;;;;14.63;11.50;;;17.00;99.90;;;;;;5022292;28;20327;-73
2023/04/11 07:32:23;;;;;;;12.50;11.20;;;17.00;99.90;;;;;;5023794;28;20225;-69
2023/04/11 07:35:11;;;;;;;14.32;11.15;;;17.40;99.90;;;;;;5014081;28;20901;-68
2023/04/11 07:38:00;;;;;;;13.30;10.60;;;18.00;99.90;;;;;;5030344;28;20348;-71
2023/04/11 07:40:51;;;;;;;12.57;10.50;;;18.00;99.90;;;;;;5040979;28;20231;-72
2023/04/11 07:43:40;;;;;;;13.73;10.90;;;18.30;99.90;;;;;;5021903;28;21841;-72
2023/04/11 07:46:29;;;;;;;13.23;11.00;;;18.30;99.90;;;;;;5039003;28;20311;-70
2023/04/11 07:49:17;;;;;;;12.90;10.02;;;18.40;99.90;;;;;;5035251;28;20216;-74
2023/04/11 07:52:06;;;;;;;12.30;10.05;;;18.90;99.90;;;;;;5041314;28;20224;-72
2023/04/11 07:54:55;;;;;;;12.10;10.10;;;18.30;99.90;;;;;;5018402;28;20882;-77
2023/04/11 07:57:46;;;;;;;15.40;9.27;;;18.80;99.90;;;;;;5017929;28;20244;-75
2023/04/11 08:00:35;;;;;;;10.90;9.32;;;19.00;99.90;;;;;;5010929;28;20240;-72
2023/04/11 08:03:25;;;;;;;13.13;9.00;;;18.90;99.90;;;;;;5031404;28;20218;-70
2023/04/11 08:06:15;;;;;;;12.23;8.10;;;19.20;99.90;;;;;;5014276;28;20221;-71
2023/04/11 08:09:04;;;;;;;11.85;8.68;;;19.20;99.90;;;;;;5024637;28;20228;-71
2023/04/11 08:11:57;;;;;;;10.48;7.90;;;19.30;99.90;;;;;;5010554;28;20248;-69
2023/04/11 08:14:47;;;;;;;8.35;7.20;;;19.30;99.90;;;;;;5029494;28;20665;-70
2023/04/11 08:17:37;;;;;;;9.05;6.82;;;19.30;99.90;;;;;;5023463;28;20265;-69
2023/04/11 08:20:28;;;;;;;7.50;6.68;;;19.50;99.90;;;;;;5027819;28;20226;-69
2023/04/11 08:23:18;;;;;;;6.82;6.13;;;19.80;99.90;;;;;;5017882;28;20821;-67
2023/04/11 08:26:08;;;;;;;7.90;6.10;;;19.90;99.90;;;;;;4997040;28;20374;-70
2023/04/11 08:28:57;;;;;;;5.82;5.22;;;20.20;99.90;;;;;;5001741;28;20249;-70
2023/04/11 08:31:49;;;;;;;11.18;5.50;;;20.80;99.90;;;;;;5012644;28;20255;-71
2023/04/11 08:34:38;;;;;;;7.00;5.00;;;20.80;99.90;;;;;;4989467;28;20230;-72
2023/04/11 08:37:31;;;;;;;6.50;4.70;;;20.80;99.90;;;;;;4993784;28;20798;-70
2023/04/11 08:40:20;;;;;;;5.22;4.60;;;20.80;99.90;;;;;;4997045;28;20265;-71
2023/04/11 08:43:11;;;;;;;8.85;5.13;;;20.00;99.90;;;;;;5007892;28;20222;-71
2023/04/11 08:46:02;;;;;;;5.05;4.32;;;19.50;99.90;;;;;;4996995;28;20218;-70
2023/04/11 08:48:52;;;;;;;6.20;4.50;;;19.70;99.90;;;;;;4996469;28;20317;-81
2023/04/11 08:51:43;;;;;;;5.15;4.60;;;20.80;99.90;;;;;;4996928;28;20233;-77
2023/04/11 08:54:32;;;;;;;13.35;4.97;;;21.30;99.90;;;;;;4998520;28;20226;-74
2023/04/11 08:57:25;;;;;;;8.52;4.57;;;21.10;99.90;;;;;;4997275;28;20974;-71
2023/04/11 09:00:17;;;;;;;4.78;4.28;;;21.10;99.90;;;;;;5000490;28;20300;-74
2023/04/11 09:03:08;;;;;;;5.35;3.90;;;21.20;99.90;;;;;;5002232;28;20222;-74
2023/04/11 09:06:10;;;;;;;4.25;3.70;;;21.60;99.90;;;;;;5003281;28;20225;-79
2023/04/11 09:08:59;;;;;;;4.07;3.33;;;21.40;99.90;;;;;;5003034;28;20294;-76
2023/04/11 09:11:52;;;;;;;4.53;3.53;;;21.00;99.90;;;;;;4994643;28;20607;-75
2023/04/11 09:14:41;;;;;;;3.95;3.40;;;20.80;99.90;;;;;;4999198;28;21043;-78
2023/04/11 09:17:41;;;;;;;4.00;3.55;;;20.20;99.90;;;;;;5004532;28;20574;-77
2023/04/11 09:20:30;;;;;;;3.90;3.20;;;19.70;99.90;;;;;;4999323;28;20561;-81
2023/04/11 09:23:23;;;;;;;4.28;3.45;;;19.10;99.90;;;;;;5003351;28;20218;-84
2023/04/11 09:26:26;;;;;;;5.28;3.38;;;18.90;99.90;;;;;;5038630;28;20221;-79
2023/04/11 09:29:35;;;;;;;4.20;3.80;;;18.50;99.90;;;;;;5049354;28;20232;-78
2023/04/11 09:32:28;;;;;;;4.47;2.80;;;18.50;99.90;;;;;;5039976;28;20228;-77
2023/04/11 09:35:21;;;;;;;4.00;3.35;;;18.40;99.90;;;;;;5037484;28;20707;-76
2023/04/11 09:38:10;;;;;;;4.97;3.08;;;18.10;99.90;;;;;;5026925;28;20235;-76
2023/04/11 09:41:02;;;;;;;3.45;2.55;;;18.00;99.90;;;;;;5027329;28;20225;-77
2023/04/11 09:43:53;;;;;;;3.03;2.63;;;17.80;99.90;;;;;;5034495;28;20226;-76
2023/04/11 09:46:56;;;;;;;3.70;3.10;;;18.00;99.90;;;;;;5043187;28;20323;-78
2023/04/11 09:49:47;;;;;;;3.58;2.40;;;18.00;99.90;;;;;;5041146;28;20264;-76
2023/04/11 09:52:36;;;;;;;3.33;2.15;;;18.10;99.90;;;;;;5037225;28;20703;-75
2023/04/11 09:55:26;;;;;;;2.80;2.40;;;18.50;99.90;;;;;;5041991;28;20225;-76
2023/04/11 09:58:17;;;;;;;3.65;2.97;;;19.30;99.90;;;;;;5043097;28;20562;-75
2023/04/11 10:01:07;;;;;;;6.00;3.08;;;20.20;99.90;;;;;;5043118;28;20225;-74
2023/04/11 10:03:56;;;;;;;3.97;3.60;;;19.70;99.90;;;;;;5032733;28;20597;-71
2023/04/11 10:06:58;;;;;;;6.82;3.92;;;21.00;99.90;;;;;;5032521;28;20237;-73
2023/04/11 10:09:47;;;;;;;4.70;4.30;;;20.70;99.90;;;;;;5013151;28;20247;-71
2023/04/11 10:12:36;;;;;;;4.90;4.40;;;20.60;99.90;;;;;;5028343;28;20249;-71
2023/04/11 10:15:26;;;;;;;6.95;4.95;;;20.60;99.90;;;;;;5037511;28;20229;-73
2023/04/11 10:18:59;;;;;;;6.32;4.60;;;19.50;99.90;;;;;;5035628;28;20225;-73
2023/04/11 10:21:48;;;;;;;5.97;4.72;;;18.20;99.90;;;;;;5040384;28;20259;-73
2023/04/11 10:24:37;;;;;;;8.13;4.90;;;18.10;99.90;;;;;;5027281;28;20229;-72
2023/04/11 10:27:47;;;;;;;7.15;5.40;;;18.30;99.90;;;;;;5028720;28;20251;-72
2023/04/11 10:31:03;;;;;;;5.32;4.82;;;18.10;99.90;;;;;;5032276;28;20830;-72
2023/04/11 10:34:13;;;;;;;5.80;5.05;;;18.40;99.90;;;;;;5040833;28;20223;-73
2023/04/11 10:37:03;;;;;;;6.65;5.00;;;18.30;99.90;;;;;;5034578;28;20226;-74
2023/04/11 10:40:08;;;;;;;7.63;5.50;;;18.60;99.90;;;;;;5019818;28;20704;-75
2023/04/11 10:43:18;;;;;;;5.18;4.65;;;18.50;99.90;;;;;;5026969;28;20221;-76
2023/04/11 10:46:22;;;;;;;5.80;5.00;;;18.50;99.90;;;;;;5030272;28;20279;-77
2023/04/11 10:49:11;;;;;;;6.88;4.50;;;18.20;99.90;;;;;;5031855;28;20298;-74
2023/04/11 10:52:19;;;;;;;16.10;5.20;;;18.60;99.90;;;;;;5037254;28;20459;-77
2023/04/11 10:55:16;;;;;;;7.95;4.75;;;18.80;99.90;;;;;;5024973;28;20226;-77
2023/04/11 10:58:06;;;;;;;6.00;4.63;;;19.00;99.90;;;;;;5023780;28;20222;-76
2023/04/11 11:01:27;;;;;;;4.82;4.20;;;19.10;99.90;;;;;;5025501;28;20251;-77
2023/04/11 11:04:31;;;;;;;4.97;4.40;;;18.80;99.90;;;;;;5040199;28;20287;-77
2023/04/11 11:07:20;;;;;;;4.43;3.70;;;18.70;99.90;;;;;;5048703;28;20290;-76
2023/04/11 11:10:10;;;;;;;4.78;3.90;;;18.90;99.90;;;;;;5044910;28;20288;-76
2023/04/11 11:12:59;;;;;;;7.32;3.90;;;19.10;99.90;;;;;;5028728;28;20244;-77
2023/04/11 11:15:49;;;;;;;5.82;4.15;;;19.30;99.90;;;;;;5047008;28;20735;-77
2023/04/11 11:18:40;;;;;;;5.80;4.05;;;19.30;99.90;;;;;;5040712;28;20235;-77
2023/04/11 11:21:33;;;;;;;5.22;3.80;;;19.20;99.90;;;;;;5017591;28;20228;-78
2023/04/11 11:24:25;;;;;;;5.68;4.10;;;18.90;99.90;;;;;;5021736;28;20397;-78
2023/04/11 11:27:24;;;;;;;4.60;4.20;;;19.10;99.90;;;;;;5039462;28;20639;-78
2023/04/11 11:30:17;;;;;;;4.70;4.30;;;18.80;99.90;;;;;;5041685;28;20228;-77
2023/04/11 11:33:17;;;;;;;5.00;4.50;;;18.80;99.90;;;;;;5035260;28;20227;-78
2023/04/11 11:36:09;;;;;;;5.03;4.40;;;18.80;99.90;;;;;;5026120;28;20216;-78
2023/04/11 11:38:58;;;;;;;7.28;6.28;;;18.60;99.90;;;;;;5028391;28;20225;-77
2023/04/11 11:41:47;;;;;;;5.47;4.63;;;18.40;99.90;;;;;;5034591;28;20226;-77
2023/04/11 11:44:37;;;;;;;9.60;5.25;;;18.30;99.90;;;;;;5042560;28;20244;-76
2023/04/11 11:47:26;;;;;;;6.93;4.95;;;18.80;99.90;;;;;;5035202;28;20279;-77
2023/04/11 11:50:26;;;;;;;5.32;4.82;;;18.70;99.90;;;;;;5034417;28;20223;-78
2023/04/11 11:53:16;;;;;;;5.57;4.80;;;18.70;99.90;;;;;;5038725;28;20318;-77
2023/04/11 11:56:15;;;;;;;6.88;5.13;;;18.00;99.90;;;;;;5024644;28;20235;-77
2023/04/11 11:59:04;;;;;;;6.07;5.03;;;17.60;99.90;;;;;;5037512;28;20335;-78
2023/04/11 12:01:53;;;;;;;5.75;5.15;;;17.80;99.90;;;;;;5042835;28;20311;-77
2023/04/11 12:04:43;;;;;;;5.47;4.97;;;18.10;99.90;;;;;;5040665;28;20320;-77
2023/04/11 12:07:32;;;;;;;8.25;4.97;;;18.00;99.90;;;;;;5020130;28;20240;-77
2023/04/11 12:10:23;;;;;;;5.85;5.30;;;18.10;99.90;;;;;;5005240;28;20657;-77
2023/04/11 12:13:14;;;;;;;5.78;5.13;;;18.10;99.90;;;;;;5039183;28;20220;-77
2023/04/11 12:16:03;;;;;;;5.63;5.13;;;18.50;99.90;;;;;;5037496;28;20316;-77
2023/04/11 12:18:52;;;;;;;7.35;5.70;;;18.40;99.90;;;;;;5031867;28;20230;-78
2023/04/11 12:21:41;;;;;;;5.75;5.15;;;18.30;99.90;;;;;;5011142;28;20254;-77
2023/04/11 12:24:30;;;;;;;5.95;5.32;;;18.50;99.90;;;;;;5043470;28;20236;-78
2023/04/11 12:27:21;;;;;;;6.20;5.40;;;18.70;99.90;;;;;;5036511;28;20224;-78
2023/04/11 12:30:13;;;;;;;6.57;5.70;;;18.50;99.90;;;;;;5043676;28;20217;-78
2023/04/11 12:33:03;;;;;;;8.88;5.95;;;18.20;99.90;;;;;;5032215;28;21106;-78
2023/04/11 12:35:53;;;;;;;6.57;5.43;;;17.80;99.90;;;;;;5034760;28;20252;-78
2023/04/11 12:38:42;;;;;;;6.35;5.72;;;17.80;99.90;;;;;;5019666;28;20310;-77
2023/04/11 12:41:31;;;;;;;6.53;5.88;;;17.70;99.90;;;;;;5021642;28;20646;-78
2023/04/11 12:44:21;;;;;;;7.88;5.88;;;17.90;99.90;;;;;;5022242;28;20243;-77
2023/04/11 12:47:10;;;;;;;6.47;5.78;;;18.10;99.90;;;;;;5013523;28;20225;-78
2023/04/11 12:50:00;;;;;;;9.00;6.38;;;17.90;99.90;;;;;;5038307;28;20225;-78
2023/04/11 12:52:49;;;;;;;5.90;5.30;;;17.80;99.90;;;;;;5041758;28;20592;-77
2023/04/11 12:55:38;;;;;;;6.22;5.45;;;17.50;99.90;;;;;;5037512;28;20214;-78
2023/04/11 12:58:27;;;;;;;7.18;6.47;;;17.50;99.90;;;;;;5022777;28;20554;-79
2023/04/11 13:01:17;;;;;;;8.10;6.40;;;17.30;99.90;;;;;;5011223;28;20312;-75
2023/04/11 13:04:06;;;;;;;7.35;5.82;;;17.30;99.90;;;;;;5022636;28;20237;-75
2023/04/11 13:07:00;;;;;;;6.90;6.20;;;17.60;99.90;;;;;;5029724;28;20221;-75
2023/04/11 13:09:50;;;;;;;6.85;6.13;;;17.50;99.90;;;;;;5014817;28;20226;-74
2023/04/11 13:12:40;;;;;;;7.00;6.30;;;17.60;99.90;;;;;;5016771;28;20252;-74
2023/04/11 13:15:29;;;;;;;7.30;6.50;;;17.80;99.90;;;;;;5021895;28;20485;-74
2023/04/11 13:18:19;;;;;;;6.88;6.20;;;17.90;99.90;;;;;;5047475;28;20252;-75
2023/04/11 13:21:09;;;;;;;7.88;6.13;;;17.80;99.90;;;;;;5036762;28;20716;-75
2023/04/11 13:23:57;;;;;;;6.82;6.13;;;17.80;99.90;;;;;;5036583;28;20314;-75
2023/04/11 13:26:46;;;;;;;8.55;7.32;;;17.80;99.90;;;;;;5031883;28;20224;-75
2023/04/11 13:29:35;;;;;;;7.57;6.75;;;17.80;99.90;;;;;;5033486;28;20252;-74
2023/04/11 13:32:24;;;;;;;7.25;6.55;;;17.70;99.90;;;;;;5032953;28;20233;-73
2023/04/11 13:35:14;;;;;;;10.88;6.55;;;17.80;99.90;;;;;;5025391;28;20308;-74
2023/04/11 13:38:03;;;;;;;8.05;6.05;;;17.80;99.90;;;;;;5041322;28;20225;-74
2023/04/11 13:40:52;;;;;;;9.40;6.60;;;17.90;99.90;;;;;;5030013;28;20732;-74
2023/04/11 13:43:41;;;;;;;8.73;6.13;;;17.90;99.90;;;;;;5032514;28;20306;-75
2023/04/11 13:46:30;;;;;;;9.23;6.18;;;17.90;99.90;;;;;;5040322;28;20239;-80
2023/04/11 13:49:19;;;;;;;6.85;6.20;;;17.70;99.90;;;;;;5042042;28;20233;-76
2023/04/11 13:52:09;;;;;;;7.07;6.40;;;17.60;99.90;;;;;;5041222;28;20229;-75
2023/04/11 13:54:58;;;;;;;6.35;5.75;;;17.60;99.90;;;;;;5028028;28;20706;-75
2023/04/11 13:57:47;;;;;;;7.15;5.80;;;17.70;99.90;;;;;;5031465;28;20236;-75
2023/04/11 14:00:36;;;;;;;7.97;6.00;;;17.70;99.90;;;;;;5037156;28;20232;-75
2023/04/11 14:03:26;;;;;;;7.10;6.40;;;17.60;99.90;;;;;;5033530;28;20233;-75
2023/04/11 14:06:15;;;;;;;7.20;6.15;;;17.50;99.90;;;;;;5034083;28;20544;-74
2023/04/11 14:09:06;;;;;;;7.03;6.40;;;17.50;99.90;;;;;;5038543;28;20220;-74
2023/04/11 14:11:55;;;;;;;7.40;6.43;;;17.50;99.90;;;;;;5033832;28;20229;-76
2023/04/11 14:14:44;;;;;;;6.53;5.55;;;17.40;99.90;;;;;;5035674;28;20233;-75
2023/04/11 14:17:33;;;;;;;8.38;6.88;;;17.40;99.90;;;;;;5016140;28;20237;-74
2023/04/11 14:20:23;;;;;;;6.72;6.03;;;17.10;99.90;;;;;;5030262;28;20278;-75
2023/04/11 14:23:15;;;;;;;8.60;6.78;;;17.20;99.90;;;;;;5036804;28;20221;-75
2023/04/11 14:26:06;;;;;;;7.18;5.78;;;17.30;99.90;;;;;;5048163;28;20236;-74
2023/04/11 14:28:55;;;;;;;8.52;6.30;;;17.30;99.90;;;;;;5027357;28;20681;-75
2023/04/11 14:31:44;;;;;;;6.40;5.80;;;17.20;99.90;;;;;;5018695;28;20247;-76
2023/04/11 14:34:33;;;;;;;7.00;6.30;;;17.20;99.90;;;;;;5014505;28;20326;-75
2023/04/11 14:37:22;;;;;;;10.95;6.80;;;17.20;99.90;;;;;;5031898;28;20237;-76
2023/04/11 14:40:11;;;;;;;7.53;6.20;;;17.30;99.90;;;;;;5030392;28;20216;-75
2023/04/11 14:43:02;;;;;;;8.07;5.85;;;17.30;99.90;;;;;;5024621;28;20221;-75